Time;durP1;ratioP1;P1;durP2;ratioP2;P2;SDS_P1;SDS_P2;PMS_P1;PMS_P2;Temp;Humidity;BMP_temperature;BMP_pressure;BME280_temperature;BME280_humidity;BME280_pressure;Samples;Min_cycle;Max_cycle;Signal;HPM_P1;HPM_P2
2022/11/26 00:01:17;;;;;;;;;;;;;;;3.39;100.00;102610.28;6246066;23;19912;-78
2022/11/26 00:03:42;;;;;;;;;;;;;;;3.38;100.00;102613.69;6246581;23;20336;-78
2022/11/26 00:06:21;;;;;;;;;;;;;;;3.36;100.00;102609.28;6247111;23;19912;-78
2022/11/26 00:08:46;;;;;;;;;;;;;;;3.35;100.00;102617.84;6246752;23;20379;-78
2022/11/26 00:11:14;;;;;;;;;;;;;;;3.32;100.00;102620.31;6247054;23;19911;-78
2022/11/26 00:13:39;;;;;;;;;;;;;;;3.29;100.00;102621.97;6245886;23;19981;-78
2022/11/26 00:16:07;;;;;;;;;;;;;;;3.26;100.00;102616.69;6247112;23;20263;-78
2022/11/26 00:18:32;;;;;;;;;;;;;;;3.23;100.00;102619.16;6247230;23;19908;-78
2022/11/26 00:20:59;;;;;;;;;;;;;;;3.21;100.00;102631.16;6246003;23;19911;-78
2022/11/26 00:23:25;;;;;;;;;;;;;;;3.17;100.00;102624.13;6246848;23;19954;-78
2022/11/26 00:25:55;;;;;;;;;;;;;;;3.14;100.00;102625.69;6246977;23;19918;-78
2022/11/26 00:28:29;;;;;;;;;;;;;;;3.10;100.00;102631.56;6245871;23;19934;-78
2022/11/26 00:30:56;;;;;;;;;;;;;;;3.07;100.00;102634.91;6246937;23;19950;-78
2022/11/26 00:33:22;;;;;;;;;;;;;;;3.06;100.00;102635.75;6246307;23;20343;-78
2022/11/26 00:35:48;;;;;;;;;;;;;;;3.04;100.00;102633.13;6245562;23;19911;-78
2022/11/26 00:38:17;;;;;;;;;;;;;;;3.02;100.00;102627.03;6246816;23;19951;-78
2022/11/26 00:40:42;;;;;;;;;;;;;;;2.99;100.00;102636.34;6246940;23;20217;-78
2022/11/26 00:43:10;;;;;;;;;;;;;;;2.94;100.00;102632.72;6245982;23;20308;-78
2022/11/26 00:45:35;;;;;;;;;;;;;;;2.91;100.00;102635.19;6246985;23;19912;-78
2022/11/26 00:48:00;;;;;;;;;;;;;;;2.84;100.00;102636.66;6246580;23;20298;-78
2022/11/26 00:50:26;;;;;;;;;;;;;;;2.83;100.00;102647.78;6245685;23;19918;-78
2022/11/26 00:52:55;;;;;;;;;;;;;;;2.79;100.00;102648.50;6246815;23;19916;-78
2022/11/26 00:55:29;;;;;;;;;;;;;;;2.75;100.00;102644.06;6246849;23;19912;-78
2022/11/26 00:57:55;;;;;;;;;;;;;;;2.72;100.00;102642.25;6246057;23;19986;-78
2022/11/26 01:00:22;;;;;;;;;;;;;;;2.69;100.00;102636.97;6246883;23;19999;-78
2022/11/26 01:02:47;;;;;;;;;;;;;;;2.66;100.00;102647.16;6245984;23;19947;-78
2022/11/26 01:05:13;;;;;;;;;;;;;;;2.64;100.00;102648.78;6246012;23;19920;-78
2022/11/26 01:07:39;;;;;;;;;;;;;;;2.62;100.00;102647.88;6246678;23;20274;-78
2022/11/26 01:10:05;;;;;;;;;;;;;;;2.59;100.00;102650.31;6245822;23;20021;-78
2022/11/26 01:12:30;;;;;;;;;;;;;;;2.58;100.00;102652.03;6246068;23;20312;-78
2022/11/26 01:14:55;;;;;;;;;;;;;;;2.55;100.00;102644.19;6246335;23;19912;-78
2022/11/26 01:17:20;;;;;;;;;;;;;;;2.54;100.00;102644.09;6245815;23;19915;-78
2022/11/26 01:19:46;;;;;;;;;;;;;;;2.53;100.00;102645.81;6247356;23;19911;-78
2022/11/26 01:22:18;;;;;;;;;;;;;;;2.50;100.00;102643.13;6248076;23;20236;-77
2022/11/26 01:24:44;;;;;;;;;;;;;;;2.49;100.00;102640.50;6247556;23;19911;-78
2022/11/26 01:27:09;;;;;;;;;;;;;;;2.48;100.00;102633.56;6248488;23;19917;-78
2022/11/26 01:29:35;;;;;;;;;;;;;;;2.46;100.00;102636.09;6248587;23;19954;-78
2022/11/26 01:32:00;;;;;;;;;;;;;;;2.45;100.00;102634.34;6247479;23;19962;-78
2022/11/26 01:34:26;;;;;;;;;;;;;;;2.45;100.00;102633.44;6248422;23;19914;-78
2022/11/26 01:36:51;;;;;;;;;;;;;;;2.43;100.00;102641.13;6248679;23;19919;-78
2022/11/26 01:39:18;;;;;;;;;;;;;;;2.43;100.00;102637.69;6247444;23;19986;-78
2022/11/26 01:41:44;;;;;;;;;;;;;;;2.42;100.00;102633.34;6248442;23;19911;-78
2022/11/26 01:44:14;;;;;;;;;;;;;;;2.40;100.00;102641.00;6248460;23;19912;-77
2022/11/26 01:46:40;;;;;;;;;;;;;;;2.39;100.00;102644.41;6247100;23;20324;-78
2022/11/26 01:49:15;;;;;;;;;;;;;;;2.38;100.00;102647.78;6248379;23;19918;-78
2022/11/26 01:51:41;;;;;;;;;;;;;;;2.37;100.00;102656.34;6248202;23;19922;-78
2022/11/26 01:54:06;;;;;;;;;;;;;;;2.35;100.00;102663.09;6247261;23;19990;-78
2022/11/26 01:56:36;;;;;;;;;;;;;;;2.20;100.00;102639.34;6247634;23;20320;-78
2022/11/26 01:59:04;;;;;;;;;;;;;;;2.34;100.00;102669.09;6247192;23;19912;-78
2022/11/26 02:01:31;;;;;;;;;;;;;;;2.32;100.00;102665.56;6248136;23;20087;-78
2022/11/26 02:03:56;;;;;;;;;;;;;;;2.30;100.00;102662.94;6247584;23;20042;-78
2022/11/26 02:06:22;;;;;;;;;;;;;;;2.29;100.00;102670.63;6247058;23;19954;-78
2022/11/26 02:08:48;;;;;;;;;;;;;;;2.28;100.00;102671.41;6247799;23;20324;-78
2022/11/26 02:11:15;;;;;;;;;;;;;;;2.28;100.00;102676.56;6247556;23;19948;-78
2022/11/26 02:13:40;;;;;;;;;;;;;;;2.27;100.00;102675.69;6247171;23;19939;-78
2022/11/26 02:16:10;;;;;;;;;;;;;;;2.26;100.00;102683.34;6248019;23;19912;-78
2022/11/26 02:18:40;;;;;;;;;;;;;;;2.26;100.00;102679.09;6248112;23;19911;-78
2022/11/26 02:21:11;;;;;;;;;;;;;;;2.26;100.00;102678.22;6247179;23;19912;-78
2022/11/26 02:23:45;;;;;;;;;;;;;;;2.27;100.00;102688.56;6248064;23;19919;-78
2022/11/26 02:26:22;;;;;;;;;;;;;;;2.28;100.00;102685.16;6247998;23;20244;-78
2022/11/26 02:28:47;;;;;;;;;;;;;;;2.30;100.00;102682.66;6247260;23;20301;-78
2022/11/26 02:31:18;;;;;;;;;;;;;;;2.31;100.00;102686.97;6247860;23;19912;-78
2022/11/26 02:33:56;;;;;;;;;;;;;;;2.29;100.00;102689.50;6247694;23;19912;-77
2022/11/26 02:36:31;;;;;;;;;;;;;;;2.27;100.00;102685.97;6246917;23;20323;-78
2022/11/26 02:38:56;;;;;;;;;;;;;;;2.28;100.00;102684.28;6247882;23;19907;-78
2022/11/26 02:41:21;;;;;;;;;;;;;;;2.26;100.00;102680.78;6246803;23;20694;-78
2022/11/26 02:43:46;;;;;;;;;;;;;;;2.24;100.00;102679.84;6247443;23;20335;-78
2022/11/26 02:46:15;;;;;;;;;;;;;;;2.23;100.00;102685.81;6247438;23;19912;-78
2022/11/26 02:48:41;;;;;;;;;;;;;;;2.21;100.00;102679.72;6246865;23;19991;-78
2022/11/26 02:51:09;;;;;;;;;;;;;;;2.21;100.00;102685.72;6247690;23;19918;-78
2022/11/26 02:53:36;;;;;;;;;;;;;;;2.21;100.00;102690.00;6247564;23;19912;-78
2022/11/26 02:56:09;;;;;;;;;;;;;;;2.22;100.00;102691.75;6246782;23;19915;-78
2022/11/26 02:58:35;;;;;;;;;;;;;;;2.21;100.00;102690.88;6248095;23;19912;-78
2022/11/26 03:01:03;;;;;;;;;;;;;;;2.20;100.00;102699.41;6247701;23;19911;-78
2022/11/26 03:03:32;;;;;;;;;;;;;;;2.20;100.00;102695.97;6246093;23;20320;-78
2022/11/26 03:06:01;;;;;;;;;;;;;;;2.20;100.00;102703.69;6247581;23;19918;-78
2022/11/26 03:08:27;;;;;;;;;;;;;;;2.18;100.00;102703.63;6247673;23;19943;-78
2022/11/26 03:10:52;;;;;;;;;;;;;;;2.16;100.00;102712.09;6245967;23;19958;-78
2022/11/26 03:13:17;;;;;;;;;;;;;;;2.14;100.00;102708.59;6246956;23;19916;-78
2022/11/26 03:15:43;;;;;;;;;;;;;;;2.12;100.00;102711.09;6247121;23;19916;-77
2022/11/26 03:18:08;;;;;;;;;;;;;;;2.09;100.00;102717.00;6245999;23;19908;-78
2022/11/26 03:20:33;;;;;;;;;;;;;;;2.09;100.00;102716.09;6246892;23;19912;-77
2022/11/26 03:22:59;;;;;;;;;;;;;;;2.08;100.00;102722.06;6247448;23;19935;-78
2022/11/26 03:25:24;;;;;;;;;;;;;;;2.06;100.00;102722.03;6245950;23;19914;-78
2022/11/26 03:27:49;;;;;;;;;;;;;;;2.06;100.00;102722.03;6247322;23;19911;-78
2022/11/26 03:30:14;;;;;;;;;;;;;;;2.07;100.00;102720.31;6247235;23;19912;-78
2022/11/26 03:32:40;;;;;;;;;;;;;;;2.06;100.00;102722.03;6246745;23;19911;-78
2022/11/26 03:35:05;;;;;;;;;;;;;;;2.06;100.00;102733.97;6247196;23;19912;-78
2022/11/26 03:37:31;;;;;;;;;;;;;;;2.06;100.00;102737.47;6245943;23;19911;-78
2022/11/26 03:39:56;;;;;;;;;;;;;;;2.06;100.00;102728.84;6247190;23;19911;-78
2022/11/26 03:42:21;;;;;;;;;;;;;;;2.04;100.00;102730.47;6247028;23;19915;-77
2022/11/26 03:44:46;;;;;;;;;;;;;;;2.00;100.00;102724.34;6246343;23;19908;-78
2022/11/26 03:47:11;;;;;;;;;;;;;;;2.00;100.00;102726.91;6247190;23;19911;-77
2022/11/26 03:49:36;;;;;;;;;;;;;;;1.97;100.00;102724.22;6247226;23;19916;-78
2022/11/26 03:52:02;;;;;;;;;;;;;;;1.94;100.00;102726.66;6245514;23;19934;-78
2022/11/26 03:54:27;;;;;;;;;;;;;;;1.94;100.00;102736.06;6246521;23;19912;-78
2022/11/26 03:56:52;;;;;;;;;;;;;;;1.93;100.00;102724.00;6247070;23;19912;-77
2022/11/26 03:59:17;;;;;;;;;;;;;;;1.93;100.00;102730.03;6246127;23;19927;-78
2022/11/26 04:01:42;;;;;;;;;;;;;;;1.93;100.00;102732.63;6247015;23;19911;-78
2022/11/26 04:04:08;;;;;;;;;;;;;;;1.94;100.00;102742.09;6246454;23;19938;-78
2022/11/26 04:06:33;;;;;;;;;;;;;;;1.99;100.00;102737.13;6245975;23;19961;-78
2022/11/26 04:08:58;;;;;;;;;;;;;;;1.98;100.00;102749.09;6247343;23;19912;-78
2022/11/26 04:11:23;;;;;;;;;;;;;;;1.98;100.00;102748.22;6247061;23;20324;-78
2022/11/26 04:13:48;;;;;;;;;;;;;;;1.97;100.00;102749.94;6245728;23;20233;-78
2022/11/26 04:16:14;;;;;;;;;;;;;;;1.95;100.00;102754.13;6246922;23;19912;-78
2022/11/26 04:18:39;;;;;;;;;;;;;;;1.93;100.00;102755.75;6247016;23;20279;-78
2022/11/26 04:21:05;;;;;;;;;;;;;;;1.91;100.00;102764.22;6246012;23;20360;-78
2022/11/26 04:23:31;;;;;;;;;;;;;;;1.89;100.00;102769.28;6247024;23;19908;-78
2022/11/26 04:25:56;;;;;;;;;;;;;;;1.87;100.00;102769.22;6246991;23;20338;-78
2022/11/26 04:28:21;;;;;;;;;;;;;;;1.86;100.00;102764.91;6246172;23;20332;-78
2022/11/26 04:30:46;;;;;;;;;;;;;;;1.84;100.00;102761.38;6246655;23;20274;-78
2022/11/26 04:33:11;;;;;;;;;;;;;;;1.85;100.00;102754.53;6246625;23;19995;-78
2022/11/26 04:35:37;;;;;;;;;;;;;;;1.85;100.00;102751.97;6245923;23;19918;-78
2022/11/26 04:38:02;;;;;;;;;;;;;;;1.87;100.00;102752.94;6246990;23;20296;-78
2022/11/26 04:40:27;;;;;;;;;;;;;;;1.88;100.00;102757.25;6246505;23;19998;-78
2022/11/26 04:42:52;;;;;;;;;;;;;;;1.86;100.00;102759.78;6246024;23;19912;-78
2022/11/26 04:45:17;;;;;;;;;;;;;;;1.87;100.00;102760.66;6246899;23;19917;-78
2022/11/26 04:47:42;;;;;;;;;;;;;;;1.88;100.00;102767.53;6245499;23;19911;-78
2022/11/26 04:50:09;;;;;;;;;;;;;;;1.90;100.00;102765.94;6246368;23;19919;-78
2022/11/26 04:52:34;;;;;;;;;;;;;;;1.95;100.00;102772.13;6246714;23;19911;-78
2022/11/26 04:54:59;;;;;;;;;;;;;;;1.96;100.00;102763.63;6246670;23;19916;-77
2022/11/26 04:57:24;;;;;;;;;;;;;;;1.97;100.00;102772.22;6248869;23;19915;-78
2022/11/26 04:59:49;;;;;;;;;;;;;;;1.95;100.00;102760.97;6248890;23;20331;-78
2022/11/26 05:02:15;;;;;;;;;;;;;;;1.94;100.00;102766.94;6247808;23;19939;-77
2022/11/26 05:04:40;;;;;;;;;;;;;;;1.92;100.00;102769.41;6248357;23;19923;-78
2022/11/26 05:07:05;;;;;;;;;;;;;;;1.93;100.00;102760.00;6248398;23;19935;-78
2022/11/26 05:09:30;;;;;;;;;;;;;;;1.94;100.00;102777.22;6247784;23;19915;-78
2022/11/26 05:11:55;;;;;;;;;;;;;;;1.94;100.00;102777.22;6248649;23;19918;-78
2022/11/26 05:14:20;;;;;;;;;;;;;;;1.95;100.00;102778.97;6248146;23;19922;-78
2022/11/26 05:16:46;;;;;;;;;;;;;;;1.96;100.00;102781.63;6247678;23;19911;-78
2022/11/26 05:19:11;;;;;;;;;;;;;;;1.97;100.00;102783.38;6248520;23;19969;-78
2022/11/26 05:21:36;;;;;;;;;;;;;;;2.00;100.00;102780.06;6248634;23;19953;-78
2022/11/26 05:24:01;;;;;;;;;;;;;;;1.99;100.00;102780.84;6247630;23;20355;-78
2022/11/26 05:26:26;;;;;;;;;;;;;;;1.97;100.00;102778.22;6248380;23;19912;-78
2022/11/26 05:28:52;;;;;;;;;;;;;;;1.98;100.00;102777.41;6248600;23;19999;-78
2022/11/26 05:31:17;;;;;;;;;;;;;;;1.98;100.00;102779.97;6247581;23;20327;-78
2022/11/26 05:33:42;;;;;;;;;;;;;;;1.98;100.00;102782.53;6248367;23;19919;-78
2022/11/26 05:36:07;;;;;;;;;;;;;;;2.02;100.00;102786.13;6248383;23;19961;-78
2022/11/26 05:38:32;;;;;;;;;;;;;;;2.05;100.00;102781.13;6247451;23;19934;-78
2022/11/26 05:40:58;;;;;;;;;;;;;;;2.08;100.00;102791.53;6248435;23;19915;-78
2022/11/26 05:43:23;;;;;;;;;;;;;;;2.06;100.00;102786.34;6248399;23;19912;-78
2022/11/26 05:45:48;;;;;;;;;;;;;;;2.09;100.00;102794.19;6247204;23;20335;-78
2022/11/26 05:48:13;;;;;;;;;;;;;;;2.11;100.00;102792.53;6248400;23;19911;-78
2022/11/26 05:50:38;;;;;;;;;;;;;;;2.13;100.00;102789.19;6248337;23;20316;-78
2022/11/26 05:53:04;;;;;;;;;;;;;;;2.13;100.00;102790.06;6247345;23;19982;-78
2022/11/26 05:55:29;;;;;;;;;;;;;;;2.15;100.00;102795.25;6248198;23;20313;-78
2022/11/26 05:57:54;;;;;;;;;;;;;;;2.15;100.00;102798.69;6248096;23;19911;-78
2022/11/26 06:00:19;;;;;;;;;;;;;;;2.14;100.00;102801.22;6247134;23;19911;-78
2022/11/26 06:02:45;;;;;;;;;;;;;;;2.12;100.00;102806.28;6247315;23;20269;-78
2022/11/26 06:05:10;;;;;;;;;;;;;;;2.11;100.00;102812.25;6246483;23;19915;-78
2022/11/26 06:07:36;;;;;;;;;;;;;;;2.10;100.00;102816.53;6248085;23;20232;-78
2022/11/26 06:10:01;;;;;;;;;;;;;;;2.08;100.00;102818.13;6247689;23;19995;-78
2022/11/26 06:12:26;;;;;;;;;;;;;;;2.07;100.00;102818.97;6247068;23;19938;-78
2022/11/26 06:14:51;;;;;;;;;;;;;;;2.04;100.00;102823.97;6248146;23;20302;-78
2022/11/26 06:17:17;;;;;;;;;;;;;;;2.04;100.00;102820.53;6248063;23;19947;-78
2022/11/26 06:19:42;;;;;;;;;;;;;;;2.02;100.00;102817.88;6247129;23;19965;-78
2022/11/26 06:22:07;;;;;;;;;;;;;;;2.05;100.00;102822.28;6248024;23;19911;-78
2022/11/26 06:24:33;;;;;;;;;;;;;;;2.06;100.00;102813.75;6248022;23;20209;-78
2022/11/26 06:26:58;;;;;;;;;;;;;;;2.07;100.00;102815.53;6247040;23;20334;-78
2022/11/26 06:29:23;;;;;;;;;;;;;;;2.05;100.00;102819.72;6247975;23;19911;-78
2022/11/26 06:31:48;;;;;;;;;;;;;;;2.04;100.00;102821.41;6247274;23;20239;-78
2022/11/26 06:34:14;;;;;;;;;;;;;;;2.02;100.00;102825.59;6246924;23;20221;-78
2022/11/26 06:36:39;;;;;;;;;;;;;;;2.02;100.00;102829.88;6247943;23;20339;-78
2022/11/26 06:39:04;;;;;;;;;;;;;;;2.02;100.00;102824.72;6247863;23;19912;-78
2022/11/26 06:41:30;;;;;;;;;;;;;;;2.01;100.00;102825.53;6246759;23;20209;-78
2022/11/26 06:43:55;;;;;;;;;;;;;;;1.98;100.00;102826.28;6247416;23;20238;-78
2022/11/26 06:46:20;;;;;;;;;;;;;;;1.95;100.00;102838.13;6246965;23;19919;-78
2022/11/26 06:48:45;;;;;;;;;;;;;;;1.92;100.00;102840.56;6246262;23;19943;-78
2022/11/26 06:51:12;;;;;;;;;;;;;;;1.87;100.00;102835.22;6247624;23;19931;-78
2022/11/26 06:53:38;;;;;;;;;;;;;;;1.83;100.00;102833.31;6247658;23;19918;-78
2022/11/26 06:56:04;;;;;;;;;;;;;;;1.83;100.00;102836.78;6246800;23;20291;-78
2022/11/26 06:58:30;;;;;;;;;;;;;;;1.88;100.00;102836.97;6247676;23;19911;-78
2022/11/26 07:00:55;;;;;;;;;;;;;;;1.91;100.00;102838.81;6247611;23;19933;-78
2022/11/26 07:03:21;;;;;;;;;;;;;;;1.91;100.00;102847.41;6246586;23;19959;-78
2022/11/26 07:05:46;;;;;;;;;;;;;;;1.90;100.00;102847.31;6247827;23;19919;-78
2022/11/26 07:08:11;;;;;;;;;;;;;;;1.90;100.00;102850.81;6247483;23;19923;-78
2022/11/26 07:10:37;;;;;;;;;;;;;;;1.90;100.00;102857.63;6246743;23;20263;-78
2022/11/26 07:13:02;;;;;;;;;;;;;;;1.87;100.00;102859.25;6247056;23;19912;-78
2022/11/26 07:15:27;;;;;;;;;;;;;;;1.84;100.00;102866.84;6246494;23;19919;-78
2022/11/26 07:17:52;;;;;;;;;;;;;;;1.83;100.00;102867.66;6247056;23;19918;-78
2022/11/26 07:20:17;;;;;;;;;;;;;;;1.82;100.00;102872.72;6247280;23;20321;-78
2022/11/26 07:22:45;;;;;;;;;;;;;;;1.79;100.00;102876.03;6246400;23;20027;-78
2022/11/26 07:25:11;;;;;;;;;;;;;;;1.80;100.00;102872.66;6247290;23;19954;-78
2022/11/26 07:27:36;;;;;;;;;;;;;;;1.80;100.00;102877.81;6247403;23;20313;-78
2022/11/26 07:30:01;;;;;;;;;;;;;;;1.80;100.00;102884.66;6245834;23;20353;-78
2022/11/26 07:32:28;;;;;;;;;;;;;;;1.82;100.00;102881.31;6247164;23;19911;-78
2022/11/26 07:34:53;;;;;;;;;;;;;;;1.87;100.00;102876.38;6247123;23;20308;-78
2022/11/26 07:37:18;;;;;;;;;;;;;;;1.91;100.00;102880.84;6246015;23;19919;-78
2022/11/26 07:39:43;;;;;;;;;;;;;;;1.95;100.00;102869.88;6247315;23;19965;-78
2022/11/26 07:42:08;;;;;;;;;;;;;;;2.00;100.00;102877.81;6247362;23;19919;-78
2022/11/26 07:44:34;;;;;;;;;;;;;;;2.07;100.00;102879.84;6246204;23;19965;-78
2022/11/26 07:47:00;;;;;;;;;;;;;;;2.11;100.00;102879.16;6247239;23;20236;-78
2022/11/26 07:49:25;;;;;;;;;;;;;;;2.15;100.00;102885.31;6247142;23;19911;-78
2022/11/26 07:51:51;;;;;;;;;;;;;;;2.17;100.00;102884.56;6246177;23;19916;-78
2022/11/26 07:54:16;;;;;;;;;;;;;;;2.22;100.00;102882.19;6247078;23;19911;-78
2022/11/26 07:56:41;;;;;;;;;;;;;;;2.26;100.00;102873.81;6246420;23;20332;-78
2022/11/26 07:59:06;;;;;;;;;;;;;;;2.30;100.00;102878.25;6245933;23;19918;-78
2022/11/26 08:01:31;;;;;;;;;;;;;;;2.37;100.00;102872.56;6246696;23;19983;-78
2022/11/26 08:03:58;;;;;;;;;;;;;;;2.44;100.00;102878.84;6246642;23;19915;-78
2022/11/26 08:06:24;;;;;;;;;;;;;;;2.51;100.00;102879.16;6246067;23;19918;-78
2022/11/26 08:08:50;;;;;;;;;;;;;;;2.60;100.00;102878.69;6246619;23;20315;-78
2022/11/26 08:11:16;;;;;;;;;;;;;;;2.67;100.00;102883.25;6247024;23;19912;-78
2022/11/26 08:13:42;;;;;;;;;;;;;;;2.78;100.00;102868.28;6246117;23;19922;-78
2022/11/26 08:16:07;;;;;;;;;;;;;;;2.88;100.00;102874.66;6247105;23;19983;-78
2022/11/26 08:18:33;;;;;;;;;;;;;;;2.95;100.00;102880.13;6247022;23;19914;-79
2022/11/26 08:20:58;;;;;;;;;;;;;;;3.02;100.00;102876.09;6246018;23;19911;-79
2022/11/26 08:23:24;;;;;;;;;;;;;;;3.08;100.00;102876.34;6247009;23;19934;-78
2022/11/26 08:25:49;;;;;;;;;;;;;;;3.15;100.00;102880.06;6245767;23;19908;-78
2022/11/26 08:28:15;;;;;;;;;;;;;;;3.21;100.00;102886.31;6247071;23;19911;-78
2022/11/26 08:30:40;;;;;;;;;;;;;;;3.28;100.00;102887.44;6249177;23;19954;-78
2022/11/26 08:33:05;;;;;;;;;;;;;;;3.33;100.00;102885.03;6247726;23;19935;-78
2022/11/26 08:35:30;;;;;;;;;;;;;;;3.39;100.00;102890.44;6249102;23;19915;-78
2022/11/26 08:37:55;;;;;;;;;;;;;;;3.43;100.00;102895.78;6249746;23;19994;-79
2022/11/26 08:40:21;;;;;;;;;;;;;;;3.48;100.00;102891.66;6248072;23;20316;-79
2022/11/26 08:42:46;;;;;;;;;;;;;;;3.54;100.00;102898.78;6249102;23;19983;-78
2022/11/26 08:45:14;;;;;;;;;;;;;;;3.60;100.00;102908.44;6248731;23;20276;-78
2022/11/26 08:47:39;;;;;;;;;;;;;;;3.66;100.00;102901.81;6247989;23;19991;-79
2022/11/26 08:50:05;;;;;;;;;;;;;;;3.71;100.00;102894.25;6248557;23;20325;-78
2022/11/26 08:52:30;;;;;;;;;;;;;;;3.77;100.00;102896.19;6251015;22;19957;-79
2022/11/26 08:54:55;;;;;;;;;;;;;;;3.84;100.00;102893.00;6247676;23;20328;-79
2022/11/26 08:57:20;;;;;;;;;;;;;;;3.90;100.00;102890.66;6248821;23;19911;-78
2022/11/26 08:59:53;;;;;;;;;;;;;;;3.97;100.00;102888.34;6248561;23;19958;-79
2022/11/26 09:02:28;;;;;;;;;;;;;;;4.06;100.00;102897.25;6247537;23;19918;-78
2022/11/26 09:05:06;;;;;;;;;;;;;;;;;;;;;
2022/11/26 09:08:03;;;;;;;;;;;;;;;4.21;100.00;102897.78;6243989;23;19999;-78
2022/11/26 09:10:34;;;;;;;;;;;;;;;4.26;100.00;102898.84;6222853;23;19912;-78
2022/11/26 09:13:18;;;;;;;;;;;;;;;4.33;100.00;102913.72;6248330;22;20348;-79
2022/11/26 09:15:46;;;;;;;;;;;;;;;4.40;100.00;102917.41;6247773;22;20006;-79
2022/11/26 09:18:11;;;;;;;;;;;;;;;4.46;100.00;102915.91;6248757;22;19986;-79
2022/11/26 09:20:36;;;;;;;;;;;;;;;4.52;100.00;102906.63;6248713;23;20332;-79
2022/11/26 09:23:01;;;;;;;;;;;;;;;4.55;100.00;102906.72;6247559;23;19931;-79
2022/11/26 09:25:27;;;;;;;;;;;;;;;4.57;100.00;102918.84;6248011;23;19911;-79
2022/11/26 09:27:52;;;;;;;;;;;;;;;4.57;100.00;102915.38;6248566;23;19912;-79
2022/11/26 09:30:18;;;;;;;;;;;;;;;4.61;100.00;102917.25;6247545;23;20024;-79
2022/11/26 09:32:43;;;;;;;;;;;;;;;4.66;100.00;102921.75;6248293;23;20399;-79
2022/11/26 09:35:08;;;;;;;;;;;;;;;4.72;100.00;102925.38;6248090;23;20232;-79
2022/11/26 09:37:33;;;;;;;;;;;;;;;4.78;100.00;102933.34;6247209;23;19911;-79
2022/11/26 09:39:58;;;;;;;;;;;;;;;4.82;100.00;102937.78;6248187;23;19912;-79
2022/11/26 09:42:40;;;;;;;;;;;;;;;4.88;100.00;102943.16;6247867;23;19918;-78
2022/11/26 09:45:08;;;;;;;;;;;;;;;4.95;100.00;102932.19;6247409;22;19912;-79
2022/11/26 09:47:37;;;;;;;;;;;;;;;5.03;100.00;102927.28;6248254;23;20240;-79
2022/11/26 09:50:02;;;;;;;;;;;;;;;5.11;100.00;102925.81;6248163;22;19991;-79
2022/11/26 09:52:33;;;;;;;;;;;;;;;5.17;100.00;102926.03;6247622;23;19970;-79
2022/11/26 09:58:23;;;;;;;;;;;;;;;5.26;100.00;102922.84;6272747;22;19989;-79
2022/11/26 10:00:58;;;;;;;;;;;;;;;5.29;100.00;102920.34;6309347;22;19911;-79
2022/11/26 10:03:36;;;;;;;;;;;;;;;5.33;100.00;102922.19;6309863;22;19914;-79
2022/11/26 10:06:31;;;;;;;;;;;;;;;5.37;100.00;102924.06;6308572;22;19918;-79
2022/11/26 10:09:11;;;;;;;;;;;;;;;5.36;100.00;102933.53;6304948;22;20323;-79
2022/11/26 10:11:39;;;;;;;;;;;;;;;5.32;100.00;102929.06;6309013;22;19910;-79
2022/11/26 10:14:10;;;;;;;;;;;;;;;5.26;100.00;102934.06;6309282;22;19956;-79
2022/11/26 10:16:44;;;;;;;;;;;;;;;5.23;100.00;102930.50;6309332;22;20231;-79
2022/11/26 10:19:16;;;;;;;;;;;;;;;5.20;100.00;102935.56;6308711;22;19918;-79
2022/11/26 10:21:46;;;;;;;;;;;;;;;5.20;100.00;102935.56;6309130;22;20412;-79
2022/11/26 10:24:25;;;;;;;;;;;;;;;5.22;100.00;102926.16;6309684;22;19911;-79
2022/11/26 10:26:50;;;;;;;;;;;;;;;5.26;100.00;102923.72;6308250;22;20328;-79
2022/11/26 10:29:26;;;;;;;;;;;;;;;5.33;100.00;102924.78;6309085;22;19995;-79
2022/11/26 10:32:10;;;;;;;;;;;;;;;5.40;100.00;102925.03;6309459;22;19978;-79
2022/11/26 10:34:41;;;;;;;;;;;;;;;5.47;100.00;102925.22;6308871;22;20286;-79
2022/11/26 10:37:07;;;;;;;;;;;;;;;5.53;100.00;102920.25;6309328;22;19918;-79
2022/11/26 10:39:32;;;;;;;;;;;;;;;5.59;100.00;102910.06;6308163;22;19911;-79
2022/11/26 10:42:02;;;;;;;;;;;;;;;5.60;100.00;102906.66;6309502;22;19911;-79
2022/11/26 10:44:40;;;;;;;;;;;;;;;5.63;100.00;102906.75;6309405;22;19910;-79
2022/11/26 10:47:18;;;;;;;;;;;;;;;5.66;100.00;102901.69;6308418;22;19933;-79
2022/11/26 10:49:43;;;;;;;;;;;;;;;5.70;100.00;102903.50;6309473;22;19911;-79
2022/11/26 10:52:08;;;;;;;;;;;;;;;5.75;100.00;102898.47;6308491;22;20307;-79
2022/11/26 10:54:34;;;;;;;;;;;;;;;5.79;100.00;102892.56;6308395;22;19968;-79
2022/11/26 10:57:08;;;;;;;;;;;;;;;5.82;100.00;102901.28;6308543;22;19965;-79
2022/11/26 10:59:42;;;;;;;;;;;;;;;5.86;100.00;102890.19;6308884;22;19915;-79
2022/11/26 11:02:26;;;;;;;;;;;;;;;5.94;100.00;102899.91;6308189;22;19911;-79
2022/11/26 11:04:53;;;;;;;;;;;;;;;6.00;100.00;102895.78;6308842;22;20285;-78
2022/11/26 11:07:37;;;;;;;;;;;;;;;6.07;100.00;102886.47;6308907;22;19918;-79
2022/11/26 11:10:08;;;;;;;;;;;;;;;6.14;100.00;102892.69;6308982;22;20072;-79
2022/11/26 11:12:39;;;;;;;;;;;;;;;6.18;100.00;102882.47;6308613;22;20083;-79
2022/11/26 11:15:16;;;;;;;;;;;;;;;6.21;100.00;102881.66;6307510;22;19911;-79
2022/11/26 11:17:42;;;;;;;;;;;;;;;6.25;100.00;102886.97;6308821;22;20227;-79
2022/11/26 11:20:07;;;;;;;;;;;;;;;6.28;100.00;102896.56;6309050;22;19911;-79
2022/11/26 11:22:33;;;;;;;;;;;;;;;6.32;100.00;102891.50;6307588;22;19969;-79
2022/11/26 11:24:59;;;;;;;;;;;;;;;6.38;100.00;102895.09;6309031;22;19911;-79
2022/11/26 11:27:38;;;;;;;;;;;;;;;6.42;100.00;102889.16;6309050;22;20213;-79
2022/11/26 11:30:03;;;;;;;;;;;;;;;6.48;100.00;102892.78;6307998;22;20019;-79
2022/11/26 11:32:34;;;;;;;;;;;;;;;6.54;100.00;102884.28;6308880;22;20308;-79
2022/11/26 11:35:17;;;;;;;;;;;;;;;6.57;100.00;102895.63;6308444;22;20243;-79
2022/11/26 11:37:46;;;;;;;;;;;;;;;6.61;100.00;102893.97;6307593;22;20334;-79
2022/11/26 11:40:24;;;;;;;;;;;;;;;6.66;100.00;102894.06;6308936;22;19936;-79
2022/11/26 11:42:50;;;;;;;;;;;;;;;6.73;100.00;102873.53;6308027;22;19914;-79
2022/11/26 11:45:34;;;;;;;;;;;;;;;6.80;100.00;102890.09;6308326;22;20377;-79
2022/11/26 11:48:08;;;;;;;;;;;;;;;6.83;100.00;102873.75;6308551;22;19964;-79
2022/11/26 11:51:09;;;;;;;;;;;;;;;6.86;100.00;102879.03;6307877;22;20251;-79
2022/11/26 11:53:40;;;;;;;;;;;;;;;6.91;100.00;102883.50;6183772;23;20006;-79
2022/11/26 11:56:24;;;;;;;;;;;;;;;7.02;100.00;102866.44;6286714;22;19968;-79
2022/11/26 11:59:07;;;;;;;;;;;;;;;7.11;100.00;102865.81;6307733;22;19917;-79
2022/11/26 12:01:45;;;;;;;;;;;;;;;7.15;100.00;102872.81;6308640;22;19914;-79
2022/11/26 12:04:18;;;;;;;;;;;;;;;7.18;100.00;102870.28;6307512;22;19911;-79
2022/11/26 12:06:58;;;;;;;;;;;;;;;7.21;100.00;102869.47;6308795;22;19990;-79
2022/11/26 12:09:23;;;;;;;;;;;;;;;7.21;100.00;102859.97;6308710;22;19922;-79
2022/11/26 12:11:57;;;;;;;;;;;;;;;7.21;100.00;102856.50;6307310;22;20231;-79
2022/11/26 12:14:43;;;;;;;;;;;;;;;7.26;100.00;102863.56;6308251;22;20247;-79
2022/11/26 12:17:34;;;;;;;;;;;;;;;7.34;100.00;102862.84;6307021;22;19911;-79
2022/11/26 12:20:09;;;;;;;;;;;;;;;7.42;100.00;102853.50;6259567;22;19911;-79
2022/11/26 12:22:43;;;;;;;;;;;;;;;7.50;100.00;102864.94;6308479;22;19915;-79
2022/11/26 12:25:20;;;;;;;;;;;;;;;7.57;100.00;102864.22;6306272;22;20275;-79
2022/11/26 12:27:50;;;;;;;;;;;;;;;7.65;100.00;102865.28;6308498;22;19953;-79
2022/11/26 12:30:19;;;;;;;;;;;;;;;7.71;100.00;102862.78;6308208;22;19910;-79
2022/11/26 12:32:53;;;;;;;;;;;;;;;7.77;100.00;102862.03;6307254;22;19998;-79
2022/11/26 12:35:25;;;;;;;;;;;;;;;7.85;100.00;102867.41;6308288;22;19981;-79
2022/11/26 12:37:56;;;;;;;;;;;;;;;7.94;100.00;102872.75;6308431;22;19911;-79
2022/11/26 12:40:28;;;;;;;;;;;;;;;8.00;100.00;102872.00;6307363;22;19917;-79
2022/11/26 12:43:05;;;;;;;;;;;;;;;8.06;100.00;102878.19;6308553;22;19911;-79
2022/11/26 12:45:36;;;;;;;;;;;;;;;8.08;100.00;102873.94;6308450;22;19980;-79